Time;durP1;ratioP1;P1;durP2;ratioP2;P2;SDS_P1;SDS_P2;PMS_P1;PMS_P2;Temp;Humidity;BMP_temperature;BMP_pressure;BME280_temperature;BME280_humidity;BME280_pressure;Samples;Min_cycle;Max_cycle;Signal;HPM_P1;HPM_P2
2022/12/17 13:07:22;;;;;;;50.67;31.05;;;-0.80;93.20;;;;;;5064313;28;20039;-62
2022/12/17 13:09:53;;;;;;;44.35;27.85;;;-0.70;93.20;;;;;;5072937;28;20043;-62
2022/12/17 13:12:43;;;;;;;43.78;27.98;;;-0.80;93.00;;;;;;5068804;28;20027;-62
2022/12/17 13:15:17;;;;;;;43.35;27.92;;;-0.60;92.40;;;;;;5068836;28;20036;-62
2022/12/17 13:18:05;;;;;;;;;;;-0.50;91.90;;;;;;5073288;28;20029;-62
2022/12/17 13:20:33;;;;;;;44.08;27.77;;;-0.40;91.80;;;;;;5062292;28;19931;-61
2022/12/17 13:23:13;;;;;;;54.75;29.73;;;-0.60;91.00;;;;;;5073087;28;20033;-62
2022/12/17 13:25:39;;;;;;;46.28;29.35;;;-0.90;91.60;;;;;;5070526;28;20024;-61
2022/12/17 13:28:29;;;;;;;45.90;27.55;;;-0.90;93.20;;;;;;5070446;28;21631;-63
2022/12/17 13:31:13;;;;;;;44.97;30.25;;;-0.80;93.30;;;;;;5074337;28;20108;-62
2022/12/17 13:33:44;;;;;;;47.10;29.33;;;-0.90;93.40;;;;;;5079407;28;20032;-63
2022/12/17 13:36:33;;;;;;;52.33;32.63;;;-1.10;93.70;;;;;;5077295;28;20029;-62
2022/12/17 13:39:33;;;;;;;50.15;30.48;;;-1.50;94.80;;;;;;5078878;28;20127;-62
2022/12/17 13:41:58;;;;;;;51.95;33.15;;;-1.80;95.40;;;;;;5072955;28;20035;-63
2022/12/17 13:44:39;;;;;;;48.40;32.60;;;-1.90;96.20;;;;;;5076159;28;20052;-62
2022/12/17 13:47:05;;;;;;;54.70;34.35;;;-1.90;96.60;;;;;;5078269;28;20029;-62
2022/12/17 13:49:31;;;;;;;53.80;33.08;;;-2.00;96.50;;;;;;5079128;28;20103;-62
2022/12/17 13:52:04;;;;;;;58.30;35.42;;;-2.20;96.80;;;;;;5077576;28;20020;-62
2022/12/17 13:54:29;;;;;;;61.37;38.37;;;-2.30;96.70;;;;;;5077543;28;20461;-62
2022/12/17 13:57:08;;;;;;;63.78;40.42;;;-2.30;97.20;;;;;;5075748;28;20025;-62
2022/12/17 13:59:34;;;;;;;62.25;36.90;;;-2.50;97.60;;;;;;5071484;28;20029;-62
2022/12/17 14:01:59;;;;;;;71.82;41.45;;;-2.60;97.90;;;;;;5078764;28;20025;-62
2022/12/17 14:04:27;;;;;;;66.00;39.88;;;-2.50;98.00;;;;;;5078700;28;20020;-63
2022/12/17 14:06:57;;;;;;;81.15;47.00;;;-2.60;97.60;;;;;;5076030;28;20429;-62
2022/12/17 14:09:35;;;;;;;68.40;41.08;;;-2.60;97.90;;;;;;5074778;28;20028;-62
2022/12/17 14:12:22;;;;;;;74.45;42.08;;;-2.80;98.00;;;;;;5076051;28;20091;-62
2022/12/17 14:15:03;;;;;;;68.03;40.97;;;-2.70;98.00;;;;;;5076444;28;20032;-62
2022/12/17 14:17:43;;;;;;;69.60;43.17;;;-2.80;98.00;;;;;;5078762;28;20027;-62
2022/12/17 14:20:20;;;;;;;67.43;41.83;;;-2.90;98.00;;;;;;5074967;28;20451;-63
2022/12/17 14:22:51;;;;;;;65.28;40.15;;;-3.00;98.00;;;;;;5077232;28;20349;-62
2022/12/17 14:25:23;;;;;;;72.57;43.33;;;-3.10;98.00;;;;;;5078062;28;20033;-62
2022/12/17 14:27:59;;;;;;;69.63;43.10;;;-3.20;98.00;;;;;;5077372;28;20090;-62
2022/12/17 14:30:39;;;;;;;65.07;39.78;;;-3.20;98.00;;;;;;5078206;28;20048;-62
2022/12/17 14:33:24;;;;;;;59.25;37.42;;;-3.40;98.00;;;;;;5078343;28;20448;-62
2022/12/17 14:35:54;;;;;;;58.58;36.65;;;-3.40;98.00;;;;;;5078096;28;20046;-62
2022/12/17 14:38:20;;;;;;;65.30;38.40;;;-3.50;98.00;;;;;;5078285;28;20028;-62
2022/12/17 14:40:46;;;;;;;57.40;35.17;;;-3.60;98.00;;;;;;5075683;28;20095;-62
2022/12/17 14:43:13;;;;;;;57.13;34.25;;;-3.50;98.00;;;;;;5074455;28;20502;-63
2022/12/17 14:51:27;;;;;;;50.85;31.98;;;-3.70;98.00;;;;;;5069082;28;20075;-62
2022/12/17 14:54:04;;;;;;;53.08;30.38;;;-3.80;98.00;;;;;;5057973;28;20319;-62
2022/12/17 14:56:30;;;;;;;49.20;30.48;;;-4.00;98.00;;;;;;5067607;28;21640;-62
2022/12/17 14:58:56;;;;;;;48.70;30.50;;;-4.10;98.00;;;;;;5053303;28;20028;-62
2022/12/17 15:01:21;;;;;;;50.50;29.38;;;-4.30;98.00;;;;;;5078075;28;20333;-63
2022/12/17 15:03:47;;;;;;;62.67;36.33;;;-4.80;98.00;;;;;;5077704;28;20037;-62
2022/12/17 15:06:17;;;;;;;60.75;39.67;;;-5.30;98.00;;;;;;5055319;28;20414;-63
2022/12/17 15:08:45;;;;;;;71.65;41.63;;;-5.60;98.00;;;;;;5073910;28;20029;-62
2022/12/17 15:11:13;;;;;;;70.97;40.42;;;-5.80;98.00;;;;;;5073300;28;20036;-62
2022/12/17 15:13:39;;;;;;;63.03;37.17;;;-6.20;98.00;;;;;;5064153;28;20028;-62
2022/12/17 15:16:05;;;;;;;78.82;44.40;;;-6.40;98.00;;;;;;5077217;28;20424;-62
2022/12/17 15:18:31;;;;;;;75.40;39.58;;;-6.60;98.00;;;;;;5074575;28;20030;-62
2022/12/17 15:20:56;;;;;;;66.32;38.55;;;-6.80;98.00;;;;;;5077305;28;20028;-62
2022/12/17 15:23:23;;;;;;;68.43;39.85;;;-6.80;98.00;;;;;;5077460;28;20110;-62
2022/12/17 15:25:50;;;;;;;72.07;40.85;;;-6.90;97.60;;;;;;5066005;28;20031;-62
2022/12/17 15:28:17;;;;;;;81.10;45.38;;;-7.00;97.20;;;;;;5072053;28;20298;-63
2022/12/17 15:30:43;;;;;;;51.03;31.35;;;-7.10;97.00;;;;;;5071875;28;20048;-62
2022/12/17 15:33:09;;;;;;;44.75;25.80;;;-7.40;97.20;;;;;;5076275;28;20096;-62
2022/12/17 15:35:36;;;;;;;38.58;22.70;;;-7.70;98.00;;;;;;5072972;28;20017;-63
2022/12/17 15:38:03;;;;;;;51.17;28.08;;;-7.90;98.00;;;;;;5060421;28;20090;-62
2022/12/17 15:40:29;;;;;;;49.92;27.05;;;-8.00;98.00;;;;;;5051144;28;20017;-62
2022/12/17 15:43:12;;;;;;;79.85;39.53;;;-8.20;97.20;;;;;;5071911;28;20029;-62
2022/12/17 15:45:43;;;;;;;61.83;32.88;;;-8.30;97.10;;;;;;5069721;28;20047;-61
2022/12/17 15:48:10;;;;;;;64.85;33.90;;;-8.50;98.00;;;;;;5058828;28;20028;-61
2022/12/17 15:50:36;;;;;;;76.00;41.47;;;-8.50;96.90;;;;;;5074331;28;20082;-62
2022/12/17 15:53:04;;;;;;;39.88;23.20;;;-8.40;96.60;;;;;;5055029;28;20043;-62
2022/12/17 15:55:33;;;;;;;53.30;31.30;;;-8.50;97.30;;;;;;5074382;28;20021;-62
2022/12/17 15:57:58;;;;;;;52.05;31.35;;;-8.40;97.20;;;;;;5074605;28;20032;-62
2022/12/17 16:00:24;;;;;;;65.32;37.53;;;-8.70;98.00;;;;;;5076309;28;20351;-62
2022/12/17 16:02:50;;;;;;;67.35;38.45;;;-8.70;96.00;;;;;;5071196;28;20025;-62
2022/12/17 16:05:15;;;;;;;62.95;35.38;;;-8.80;95.90;;;;;;5067519;28;20024;-62
2022/12/17 16:07:42;;;;;;;73.15;41.28;;;-8.90;96.00;;;;;;5070000;28;20028;-62
2022/12/17 16:10:09;;;;;;;48.88;28.83;;;-8.90;94.40;;;;;;5073690;28;20056;-62
2022/12/17 16:12:35;;;;;;;84.50;45.85;;;-9.00;95.10;;;;;;5073121;28;20052;-61
2022/12/17 16:15:03;;;;;;;75.97;42.30;;;-8.80;94.40;;;;;;5067786;28;20111;-62
2022/12/17 16:17:28;;;;;;;92.57;52.20;;;-8.90;95.30;;;;;;5071199;28;20029;-62
2022/12/17 16:19:54;;;;;;;61.92;36.30;;;-8.90;94.70;;;;;;5073418;28;20085;-62
2022/12/17 16:22:20;;;;;;;84.05;49.03;;;-8.90;93.70;;;;;;5064409;28;20028;-62
2022/12/17 16:24:51;;;;;;;123.85;70.38;;;-8.80;94.10;;;;;;5073125;28;20041;-63
2022/12/17 16:27:17;;;;;;;98.47;55.45;;;-8.70;94.10;;;;;;5074814;28;20033;-63
2022/12/17 16:29:44;;;;;;;82.53;48.67;;;-8.80;94.50;;;;;;5067032;28;20098;-63
2022/12/17 16:32:10;;;;;;;86.63;48.45;;;-8.90;95.10;;;;;;5071673;28;20096;-62
2022/12/17 16:34:35;;;;;;;80.65;44.55;;;-8.90;95.20;;;;;;5065646;28;20166;-63
2022/12/17 16:37:01;;;;;;;94.57;51.50;;;-8.90;94.70;;;;;;5050083;28;20021;-64
2022/12/17 16:39:27;;;;;;;83.75;49.13;;;-9.00;95.50;;;;;;5074995;28;20026;-63
2022/12/17 16:41:53;;;;;;;95.32;48.92;;;-8.90;94.10;;;;;;5069929;28;20025;-63
2022/12/17 16:44:20;;;;;;;65.65;38.08;;;-9.00;94.00;;;;;;5070581;28;20106;-63
2022/12/17 16:46:46;;;;;;;79.88;44.70;;;-9.00;94.10;;;;;;5063621;28;20429;-62
2022/12/17 16:49:15;;;;;;;68.65;38.85;;;-9.00;93.30;;;;;;5070461;28;20029;-62
2022/12/17 16:51:41;;;;;;;67.45;35.42;;;-8.80;92.60;;;;;;5075821;28;20100;-62
2022/12/17 16:54:12;;;;;;;61.65;32.38;;;-8.90;93.30;;;;;;5074963;28;20021;-63
2022/12/17 16:56:38;;;;;;;59.03;32.05;;;-9.00;94.80;;;;;;5073912;28;20082;-63
2022/12/17 16:59:06;;;;;;;75.57;43.00;;;-9.20;95.10;;;;;;5069306;28;20032;-63
2022/12/17 17:01:31;;;;;;;100.78;55.05;;;-9.20;93.90;;;;;;5074556;28;20052;-63
2022/12/17 17:03:57;;;;;;;187.80;99.97;;;-9.20;94.50;;;;;;5074744;28;20032;-63
2022/12/17 17:06:23;;;;;;;139.88;81.80;;;-9.30;94.90;;;;;;5075124;28;20606;-63
2022/12/17 17:08:49;;;;;;;184.52;98.82;;;-9.30;93.40;;;;;;5074633;28;20036;-62
2022/12/17 17:11:20;;;;;;;170.45;93.55;;;-9.20;93.60;;;;;;5075644;28;20028;-63
2022/12/17 17:13:49;;;;;;;166.05;88.72;;;-9.20;93.70;;;;;;5073187;28;20052;-63
2022/12/17 17:16:16;;;;;;;143.15;80.55;;;-9.20;93.00;;;;;;5075114;28;20048;-63
2022/12/17 17:18:42;;;;;;;145.43;78.63;;;-9.20;91.80;;;;;;5072673;28;20020;-63
2022/12/17 17:21:17;;;;;;;123.40;66.00;;;-9.20;92.70;;;;;;5075660;28;20028;-63
2022/12/17 17:23:43;;;;;;;123.88;66.40;;;-9.20;91.80;;;;;;5074642;28;20432;-63
2022/12/17 17:26:10;;;;;;;114.43;60.30;;;-9.10;92.10;;;;;;5057996;28;20025;-63
2022/12/17 17:28:36;;;;;;;122.45;65.93;;;-9.10;90.30;;;;;;5053644;28;20035;-63
2022/12/17 17:31:05;;;;;;;93.50;53.38;;;-9.00;90.80;;;;;;5075471;28;20013;-63
2022/12/17 17:33:32;;;;;;;91.18;53.72;;;-8.80;88.80;;;;;;5072845;28;20025;-62
2022/12/17 17:36:09;;;;;;;85.65;49.20;;;-8.50;87.70;;;;;;5075494;28;20158;-62
2022/12/17 17:38:36;;;;;;;127.05;65.47;;;-8.40;88.10;;;;;;5074395;28;20056;-63
2022/12/17 17:41:03;;;;;;;93.88;52.22;;;-8.30;87.10;;;;;;5075438;28;20024;-63
2022/12/17 17:43:30;;;;;;;96.93;54.30;;;-8.20;86.10;;;;;;5072998;28;20040;-62
2022/12/17 17:46:02;;;;;;;112.97;59.35;;;-8.20;87.00;;;;;;5075474;28;20032;-63
2022/12/17 17:48:31;;;;;;;109.38;57.92;;;-8.10;85.60;;;;;;5073564;28;20060;-63
2022/12/17 17:50:58;;;;;;;113.32;60.35;;;-8.00;85.70;;;;;;5075390;28;20017;-62
2022/12/17 17:53:24;;;;;;;157.25;78.35;;;-7.90;85.90;;;;;;5074523;28;20024;-63
2022/12/17 17:55:50;;;;;;;127.75;65.13;;;-8.00;87.50;;;;;;5075349;28;20016;-63
2022/12/17 17:58:16;;;;;;;93.15;49.10;;;-8.10;87.50;;;;;;5071745;28;20036;-64
2022/12/17 18:00:41;;;;;;;111.28;60.15;;;-8.10;87.20;;;;;;5075402;28;20477;-64
2022/12/17 18:03:07;;;;;;;89.32;48.97;;;-8.30;90.20;;;;;;5074425;28;20067;-64
2022/12/17 18:05:41;;;;;;;103.13;54.15;;;-8.50;90.00;;;;;;5075247;28;20100;-64
2022/12/17 18:08:07;;;;;;;90.00;49.47;;;-8.60;90.60;;;;;;5073963;28;20025;-64
2022/12/17 18:10:33;;;;;;;90.55;49.25;;;-8.50;89.10;;;;;;5075316;28;20396;-64
2022/12/17 18:15:43;;;;;;;79.90;44.05;;;-8.40;90.90;;;;;;5074648;28;20040;-64
2022/12/17 18:18:09;;;;;;;127.65;71.65;;;-8.60;91.60;;;;;;5076102;28;20017;-64
2022/12/17 18:20:34;;;;;;;112.65;59.63;;;-8.60;91.50;;;;;;5078728;28;20456;-64
2022/12/17 18:23:00;;;;;;;128.95;66.28;;;-8.60;90.30;;;;;;5077603;28;20047;-64
2022/12/17 18:25:26;;;;;;;115.40;60.15;;;-8.60;90.50;;;;;;5076606;28;20021;-65
2022/12/17 18:27:52;;;;;;;149.02;82.45;;;-8.70;90.60;;;;;;5076384;28;20930;-64
2022/12/17 18:30:18;;;;;;;112.78;57.95;;;-8.80;90.50;;;;;;5077708;28;20089;-64
2022/12/17 18:32:48;;;;;;;108.80;55.83;;;-8.90;91.80;;;;;;5077502;28;20060;-64
2022/12/17 18:35:17;;;;;;;95.53;50.95;;;-9.00;92.10;;;;;;5077844;28;20032;-63
2022/12/17 18:37:42;;;;;;;97.35;51.97;;;-9.10;91.20;;;;;;5069029;28;20064;-64
2022/12/17 18:40:08;;;;;;;127.55;66.60;;;-9.00;90.10;;;;;;5076748;28;20074;-63
2022/12/17 18:45:25;;;;;;;136.15;68.45;;;-9.00;91.40;;;;;;5057493;28;20409;-64
2022/12/17 18:47:51;;;;;;;120.07;62.35;;;-9.10;92.50;;;;;;5056257;28;20421;-63
2022/12/17 18:50:17;;;;;;;141.20;71.72;;;-8.90;90.20;;;;;;5057002;28;20092;-64
2022/12/17 18:52:42;;;;;;;108.68;57.50;;;-8.90;91.50;;;;;;5058038;28;20458;-64
2022/12/17 18:55:09;;;;;;;98.30;56.30;;;-9.10;92.70;;;;;;5055014;28;20021;-63
2022/12/17 18:57:35;;;;;;;97.90;52.13;;;-9.00;91.10;;;;;;5058154;28;20364;-64
2022/12/17 19:00:00;;;;;;;109.57;59.97;;;-9.00;91.40;;;;;;5055113;28;20093;-63
2022/12/17 19:02:26;;;;;;;103.72;52.85;;;-8.90;91.20;;;;;;5057284;28;20039;-64
2022/12/17 19:04:51;;;;;;;102.18;52.72;;;-9.00;93.10;;;;;;5057111;28;20417;-63
2022/12/17 19:07:17;;;;;;;114.07;59.90;;;-9.10;93.00;;;;;;5057713;28;20298;-62
2022/12/17 19:09:43;;;;;;;101.75;55.05;;;-9.00;92.80;;;;;;5056537;28;20030;-62
2022/12/17 19:12:09;;;;;;;117.85;60.28;;;-9.20;93.60;;;;;;5057508;28;20017;-62
2022/12/17 19:14:35;;;;;;;113.55;59.33;;;-9.30;93.40;;;;;;5056510;28;20078;-62
2022/12/17 19:17:04;;;;;;;122.32;64.30;;;-9.20;91.60;;;;;;5056886;28;20037;-65
2022/12/17 19:19:33;;;;;;;120.82;62.63;;;-9.10;91.70;;;;;;5056387;28;20083;-64
2022/12/17 19:21:59;;;;;;;95.10;49.95;;;-9.20;92.70;;;;;;5057600;28;20421;-65
2022/12/17 19:24:24;;;;;;;105.82;58.80;;;-9.20;92.00;;;;;;5056394;28;20029;-65
2022/12/17 19:26:51;;;;;;;107.70;55.45;;;-9.30;92.90;;;;;;5057577;28;20025;-64
2022/12/17 19:29:18;;;;;;;115.10;56.10;;;-9.20;93.20;;;;;;5052916;28;20033;-64
2022/12/17 19:31:44;;;;;;;106.32;54.63;;;-9.10;92.10;;;;;;5041558;28;20024;-64
2022/12/17 19:34:12;;;;;;;114.35;59.78;;;-9.30;95.50;;;;;;5055361;28;20317;-64
2022/12/17 19:36:39;;;;;;;115.88;57.35;;;-9.50;95.40;;;;;;5057308;28;20024;-63
2022/12/17 19:39:07;;;;;;;110.10;56.75;;;-9.70;95.20;;;;;;5055235;28;20314;-64
2022/12/17 19:41:33;;;;;;;108.40;53.35;;;-9.60;93.30;;;;;;5057248;28;20020;-64
2022/12/17 19:44:01;;;;;;;102.82;54.13;;;-9.40;91.60;;;;;;5062025;28;20442;-63
2022/12/17 19:46:29;;;;;;;108.45;54.05;;;-9.20;90.10;;;;;;5076371;28;20027;-64
2022/12/17 19:48:55;;;;;;;139.73;68.70;;;-9.10;91.30;;;;;;5075706;28;20430;-64
2022/12/17 19:51:25;;;;;;;128.73;62.83;;;-9.20;92.70;;;;;;5059268;28;20106;-64
2022/12/17 19:53:51;;;;;;;128.93;61.85;;;-9.20;92.00;;;;;;5075987;28;20452;-64
2022/12/17 19:56:28;;;;;;;133.90;66.13;;;-9.20;92.00;;;;;;5076740;28;20021;-64
2022/12/17 19:58:56;;;;;;;111.07;56.42;;;-9.40;94.30;;;;;;5074534;28;20147;-64
2022/12/17 20:01:24;;;;;;;104.18;56.08;;;-9.50;94.40;;;;;;5066790;28;20066;-64
2022/12/17 20:03:51;;;;;;;117.75;58.90;;;-9.60;93.80;;;;;;5071356;28;20021;-64
2022/12/17 20:06:18;;;;;;;116.85;63.58;;;-9.60;94.50;;;;;;5069584;28;20313;-64
2022/12/17 20:08:44;;;;;;;145.48;76.68;;;-9.60;94.30;;;;;;5069500;28;20031;-63
2022/12/17 20:13:59;;;;;;;124.43;66.05;;;-9.60;93.80;;;;;;5072108;28;20444;-63
2022/12/17 20:16:26;;;;;;;100.78;53.03;;;-9.50;93.60;;;;;;5065459;28;20436;-64
2022/12/17 20:18:53;;;;;;;108.00;56.35;;;-9.50;93.20;;;;;;5055774;28;20032;-64
2022/12/17 20:21:19;;;;;;;109.53;54.67;;;-9.60;95.30;;;;;;5074493;28;20050;-64
2022/12/17 20:23:46;;;;;;;105.70;55.33;;;-9.90;97.70;;;;;;5072797;28;20028;-64
2022/12/17 20:26:12;;;;;;;120.70;61.55;;;-10.00;95.70;;;;;;5074708;28;20025;-65
2022/12/17 20:28:38;;;;;;;129.80;63.97;;;-10.00;95.50;;;;;;5073010;28;20451;-64
2022/12/17 20:31:04;;;;;;;133.90;69.97;;;-10.00;94.50;;;;;;5074092;28;20027;-64
2022/12/17 20:33:30;;;;;;;118.38;61.35;;;-10.00;95.90;;;;;;5074988;28;20078;-65
2022/12/17 20:36:03;;;;;;;111.47;55.20;;;-10.10;95.70;;;;;;5074907;28;20032;-64
2022/12/17 20:38:28;;;;;;;105.00;57.20;;;-9.90;90.50;;;;;;5064980;28;20036;-64
2022/12/17 20:40:54;;;;;;;121.85;61.88;;;-9.50;90.50;;;;;;5071898;28;20032;-64
2022/12/17 20:43:19;;;;;;;112.45;52.35;;;-9.60;94.40;;;;;;5071752;28;20040;-64
2022/12/17 20:45:50;;;;;;;130.70;69.40;;;-9.60;90.20;;;;;;5067868;28;20107;-64
2022/12/17 20:48:16;;;;;;;140.60;75.28;;;-9.60;94.90;;;;;;5072097;28;20360;-64
2022/12/17 20:50:43;;;;;;;129.18;69.95;;;-9.90;96.00;;;;;;5068916;28;20328;-64
2022/12/17 20:53:09;;;;;;;144.30;70.22;;;-9.90;96.30;;;;;;5071152;28;20099;-64
2022/12/17 20:55:36;;;;;;;133.63;64.68;;;-10.10;96.80;;;;;;5070097;28;20074;-64
2022/12/17 20:58:01;;;;;;;112.00;56.60;;;-10.00;95.40;;;;;;5070595;28;20036;-63
2022/12/17 21:00:27;;;;;;;110.57;52.70;;;-10.10;95.80;;;;;;5069108;28;20033;-64
2022/12/17 21:02:53;;;;;;;120.95;57.65;;;-10.00;95.20;;;;;;5068100;28;20035;-64
2022/12/17 21:05:18;;;;;;;114.55;53.70;;;-10.00;95.00;;;;;;5072773;28;20044;-63
2022/12/17 21:07:45;;;;;;;118.30;56.50;;;-9.90;94.60;;;;;;5068273;28;20059;-63
2022/12/17 21:10:11;;;;;;;122.85;59.63;;;-9.80;94.00;;;;;;5061393;28;20131;-64
2022/12/17 21:15:24;;;;;;;142.88;66.50;;;-10.10;96.40;;;;;;5067058;28;20486;-63
2022/12/17 21:17:51;;;;;;;122.88;59.72;;;-10.20;96.90;;;;;;5067752;28;20032;-63
2022/12/17 21:20:17;;;;;;;108.30;55.97;;;-10.20;96.60;;;;;;5070524;28;20100;-63
2022/12/17 21:22:43;;;;;;;107.68;54.03;;;-10.20;95.40;;;;;;5068360;28;20473;-63
2022/12/17 21:25:09;;;;;;;111.70;53.42;;;-10.10;95.20;;;;;;5069717;28;20036;-63
2022/12/17 21:27:35;;;;;;;127.22;63.80;;;-10.10;95.70;;;;;;5068144;28;20108;-64
2022/12/17 21:30:01;;;;;;;134.48;66.95;;;-10.10;94.50;;;;;;5068876;28;20378;-64
2022/12/17 21:32:27;;;;;;;163.02;77.50;;;-10.20;96.10;;;;;;5066126;28;20078;-64
2022/12/17 21:34:52;;;;;;;122.05;59.25;;;-10.40;96.30;;;;;;5068012;28;20421;-63
2022/12/17 21:37:18;;;;;;;122.30;60.40;;;-10.30;95.70;;;;;;5072457;28;20345;-63
2022/12/17 21:39:44;;;;;;;122.28;58.63;;;-10.40;96.60;;;;;;5069252;28;20425;-64
2022/12/17 21:44:57;;;;;;;109.72;53.05;;;-10.10;94.30;;;;;;5063367;28;20416;-63
2022/12/17 21:47:24;;;;;;;100.22;49.83;;;-10.20;96.40;;;;;;5070078;28;20040;-63
2022/12/17 21:49:50;;;;;;;102.13;49.38;;;-10.30;96.20;;;;;;5051862;28;20632;-63
2022/12/17 21:52:15;;;;;;;105.60;51.17;;;-10.40;96.60;;;;;;5072179;28;20060;-63
2022/12/17 21:54:41;;;;;;;107.32;53.55;;;-10.40;96.60;;;;;;5071523;28;20492;-63
2022/12/17 21:57:09;;;;;;;99.57;50.05;;;-10.20;95.10;;;;;;5074684;28;20416;-63
2022/12/17 21:59:35;;;;;;;105.93;50.40;;;-10.10;95.00;;;;;;5072989;28;20415;-63
2022/12/17 22:02:00;;;;;;;97.63;48.83;;;-10.10;95.70;;;;;;5074091;28;20078;-62
2022/12/17 22:04:26;;;;;;;93.75;47.40;;;-10.00;95.50;;;;;;5074013;28;20413;-63
2022/12/17 22:06:51;;;;;;;93.78;46.92;;;-9.90;94.80;;;;;;5075603;28;20493;-63
2022/12/17 22:09:22;;;;;;;107.75;51.00;;;-10.00;96.70;;;;;;5073127;28;20032;-63
2022/12/17 22:14:01;;;;;;;104.72;52.08;;;-10.20;97.30;;;;;;5071568;28;20500;-65
2022/12/17 22:14:34;;;;;;;118.82;52.90;;;-10.30;97.90;;;;;;5070568;28;20037;-65
2022/12/17 22:17:01;;;;;;;112.30;51.28;;;-10.50;97.00;;;;;;5074526;28;20054;-64
2022/12/17 22:19:27;;;;;;;110.75;49.75;;;-10.40;95.40;;;;;;5070229;28;20028;-62
2022/12/17 22:21:52;;;;;;;111.22;50.45;;;-10.40;95.50;;;;;;5064296;28;20490;-65
2022/12/17 22:24:21;;;;;;;118.97;52.90;;;-10.30;94.90;;;;;;5068817;28;20036;-64
2022/12/17 22:26:47;;;;;;;109.35;52.13;;;-10.20;94.40;;;;;;5073406;28;20065;-64
2022/12/17 22:32:58;;;;;;;110.75;51.08;;;-10.10;94.90;;;;;;5080987;28;20029;-63
2022/12/17 22:34:49;;;;;;;112.78;57.08;;;-10.30;97.90;;;;;;5074371;28;20118;-64
2022/12/17 22:37:14;;;;;;;99.95;49.67;;;-10.50;98.00;;;;;;5081827;28;20078;-63
2022/12/17 22:39:40;;;;;;;90.18;45.03;;;-10.60;98.00;;;;;;5069610;28;20039;-63
2022/12/17 22:44:50;;;;;;;104.18;52.08;;;-10.50;96.70;;;;;;5072575;28;20079;-63
2022/12/17 22:47:15;;;;;;;96.75;47.40;;;-10.40;96.80;;;;;;5073370;28;20041;-63
2022/12/17 22:49:41;;;;;;;88.22;42.63;;;-10.50;98.00;;;;;;5062646;28;20060;-63
2022/12/17 22:52:07;;;;;;;93.72;42.83;;;-10.50;97.60;;;;;;5073962;28;20033;-63
2022/12/17 22:54:32;;;;;;;87.35;43.88;;;-10.60;98.00;;;;;;5072537;28;20039;-64
2022/12/17 22:56:58;;;;;;;97.20;47.80;;;-10.60;98.00;;;;;;5072993;28;20036;-63
2022/12/17 22:59:23;;;;;;;96.53;46.05;;;-10.70;98.00;;;;;;5072821;28;20456;-63
2022/12/17 23:01:49;;;;;;;89.97;46.28;;;-10.90;98.00;;;;;;5072072;28;20047;-63
2022/12/17 23:04:15;;;;;;;100.88;45.80;;;-10.70;97.20;;;;;;5071845;28;20035;-63
2022/12/17 23:06:46;;;;;;;93.07;45.08;;;-10.70;97.70;;;;;;5073635;28;20025;-63
2022/12/17 23:09:13;;;;;;;99.45;47.00;;;-10.60;95.70;;;;;;5072031;28;20337;-63
2022/12/17 23:11:39;;;;;;;92.70;47.47;;;-10.50;96.10;;;;;;5072980;28;20327;-64
2022/12/17 23:14:06;;;;;;;81.78;41.40;;;-10.50;97.40;;;;;;5072789;28;20530;-63
2022/12/17 23:16:33;;;;;;;137.48;60.38;;;-10.60;97.10;;;;;;5068890;28;20031;-63
2022/12/17 23:19:00;;;;;;;146.93;62.30;;;-10.70;98.00;;;;;;5053524;28;20029;-64
2022/12/17 23:21:25;;;;;;;133.70;61.75;;;-10.80;97.90;;;;;;5073284;28;20044;-63
2022/12/17 23:23:53;;;;;;;101.90;50.50;;;-10.80;98.00;;;;;;5073335;28;20303;-64
2022/12/17 23:26:25;;;;;;;114.25;53.65;;;-10.70;98.00;;;;;;5074180;28;20029;-64
2022/12/17 23:28:57;;;;;;;100.03;48.75;;;-10.80;97.90;;;;;;5069701;28;20081;-63
2022/12/17 23:31:23;;;;;;;93.35;44.65;;;-10.80;98.00;;;;;;5065536;28;20021;-63
2022/12/17 23:33:48;;;;;;;97.38;47.90;;;-10.80;97.90;;;;;;5063003;28;20433;-63
2022/12/17 23:36:20;;;;;;;89.10;42.67;;;-10.90;98.00;;;;;;5072972;28;20029;-63
2022/12/17 23:38:46;;;;;;;102.28;46.15;;;-11.00;98.00;;;;;;5054840;28;20048;-63
2022/12/17 23:41:16;;;;;;;91.70;44.08;;;-11.00;97.80;;;;;;5073200;28;20062;-63
2022/12/17 23:43:41;;;;;;;86.65;44.28;;;-10.90;98.00;;;;;;5069442;28;20076;-63
2022/12/17 23:46:08;;;;;;;82.50;40.70;;;-10.80;97.70;;;;;;5072751;28;20068;-64
2022/12/17 23:48:39;;;;;;;88.25;44.78;;;-10.90;98.00;;;;;;5072938;28;20055;-63
2022/12/17 23:51:05;;;;;;;92.45;45.50;;;-11.00;98.00;;;;;;5067887;28;20052;-63
2022/12/17 23:53:32;;;;;;;94.43;43.30;;;-11.00;98.00;;;;;;5073649;28;20024;-63
2022/12/17 23:56:08;;;;;;;103.28;45.95;;;-10.90;97.40;;;;;;5071686;28;20051;-63
2022/12/17 23:58:37;;;;;;;97.22;45.25;;;-10.80;96.40;;;;;;5071161;28;20029;-63
